Fruit Hill, South Carolina
Current Conditions -  °F | °C
As of 9:35 AM on Monday 26 Jan 2015 (Local Time) from KEOE Reporting Station
Clear Clear  
Wind Chill: 41°   Ceiling: Unl
Heat Index: 46°   Visibility: 10mi
Dew Point: 41°   Wind: 13mph
Humidity: 81%   Direction: 270°W
Pressure: 29.69"   Gusts: 20mph
Location:  34.0417°N, 81.7912°W
Report Text: KEOE 261435Z AUTO 27011G17KT 10SM CLR 08/05 A2969 RMK AO2 LTG DSNT E
Loading
Personal Weather Stations






























Interactive Weather Map New forecast layout! Learn more

10-Day Weather Forecast

Advertisements
Track Severe Weather on mobile